Time;durP1;ratioP1;P1;durP2;ratioP2;P2;SDS_P1;SDS_P2;PMS_P1;PMS_P2;Temp;Humidity;BMP_temperature;BMP_pressure;BME280_temperature;BME280_humidity;BME280_pressure;Samples;Min_cycle;Max_cycle;Signal;HPM_P1;HPM_P2
2023/12/12 00:00:03;;;;;;;9.80;2.90;;;;;;;;;;5051867;28;20629;-83
2023/12/12 00:02:30;;;;;;;9.70;3.13;;;;;;;;;;5051974;28;20202;-84
2023/12/12 00:04:57;;;;;;;7.00;2.30;;;;;;;;;;5052120;28;20213;-84
2023/12/12 00:07:25;;;;;;;10.37;3.43;;;;;;;;;;5051393;28;20238;-84
2023/12/12 00:09:52;;;;;;;6.70;2.87;;;;;;;;;;5051643;28;20261;-84
2023/12/12 00:12:20;;;;;;;11.13;2.80;;;;;;;;;;5051223;28;20238;-84
2023/12/12 00:14:47;;;;;;;8.90;2.37;;;;;;;;;;5051986;28;20238;-84
2023/12/12 00:17:14;;;;;;;12.40;3.27;;;;;;;;;;5051351;28;20234;-84
2023/12/12 00:19:42;;;;;;;9.70;2.87;;;;;;;;;;5051992;28;20608;-84
2023/12/12 00:22:09;;;;;;;9.97;2.60;;;;;;;;;;5051221;28;20316;-84
2023/12/12 00:24:37;;;;;;;11.33;3.10;;;;;;;;;;5055307;28;20210;-83
2023/12/12 00:27:04;;;;;;;9.70;3.00;;;;;;;;;;5051524;28;20234;-84
2023/12/12 00:29:32;;;;;;;11.80;3.07;;;;;;;;;;5051764;28;20230;-83
2023/12/12 00:31:59;;;;;;;10.60;2.93;;;;;;;;;;5051185;28;20748;-84
2023/12/12 00:34:26;;;;;;;7.37;2.80;;;;;;;;;;5051469;28;20256;-84
2023/12/12 00:36:53;;;;;;;7.93;2.30;;;;;;;;;;5050877;28;20245;-84
2023/12/12 00:39:20;;;;;;;15.43;2.93;;;;;;;;;;5051711;28;20206;-84
2023/12/12 00:41:48;;;;;;;11.80;3.63;;;;;;;;;;5050883;28;20237;-84
2023/12/12 00:44:15;;;;;;;6.63;2.90;;;;;;;;;;5051698;28;20212;-84
2023/12/12 00:46:42;;;;;;;5.30;2.90;;;;;;;;;;5051127;28;20246;-84
2023/12/12 00:49:09;;;;;;;14.77;3.20;;;;;;;;;;5051356;28;20248;-84
2023/12/12 00:51:37;;;;;;;8.03;3.20;;;;;;;;;;5050823;28;20238;-84
2023/12/12 00:54:04;;;;;;;12.27;2.90;;;;;;;;;;5051360;28;20214;-84
2023/12/12 00:56:31;;;;;;;9.37;2.83;;;;;;;;;;5051102;28;20252;-84
2023/12/12 00:58:59;;;;;;;10.20;2.83;;;;;;;;;;5053147;28;20825;-84
2023/12/12 01:01:26;;;;;;;13.63;3.40;;;;;;;;;;5054740;28;20234;-84
2023/12/12 01:03:53;;;;;;;8.07;3.23;;;;;;;;;;5055528;28;20213;-84
2023/12/12 01:06:24;;;;;;;9.40;3.13;;;;;;;;;;5055071;28;20238;-84
2023/12/12 01:08:51;;;;;;;10.00;3.10;;;;;;;;;;5055129;28;20704;-84
2023/12/12 01:11:18;;;;;;;6.37;2.70;;;;;;;;;;5054447;28;20287;-84
2023/12/12 01:13:45;;;;;;;5.07;2.57;;;;;;;;;;5055044;28;20214;-83
2023/12/12 01:16:13;;;;;;;7.83;3.03;;;;;;;;;;5054727;28;20230;-83
2023/12/12 01:18:40;;;;;;;7.70;2.87;;;;;;;;;;5055129;28;20206;-84
2023/12/12 01:21:07;;;;;;;10.77;2.60;;;;;;;;;;5054411;28;20242;-83
2023/12/12 01:23:47;;;;;;;5.43;2.90;;;;;;;;;;5055235;28;20206;-83
2023/12/12 01:26:14;;;;;;;5.50;2.57;;;;;;;;;;5054496;28;20241;-83
2023/12/12 01:28:41;;;;;;;7.53;2.90;;;;;;;;;;5054660;28;20704;-83
2023/12/12 01:31:08;;;;;;;9.10;2.53;;;;;;;;;;5054295;28;20234;-83
2023/12/12 01:33:37;;;;;;;6.50;2.57;;;;;;;;;;5054920;28;20677;-83
2023/12/12 01:36:04;;;;;;;5.80;2.40;;;;;;;;;;5054406;28;20234;-84
2023/12/12 01:38:31;;;;;;;9.60;3.40;;;;;;;;;;5054454;28;20225;-84
2023/12/12 01:40:58;;;;;;;7.10;2.50;;;;;;;;;;5053922;28;20319;-84
2023/12/12 01:43:25;;;;;;;14.73;3.10;;;;;;;;;;5054557;28;20248;-83
2023/12/12 01:45:52;;;;;;;13.13;3.10;;;;;;;;;;5054057;28;20241;-83
2023/12/12 01:48:20;;;;;;;9.53;3.33;;;;;;;;;;5054330;28;20797;-83
2023/12/12 01:50:49;;;;;;;7.20;2.83;;;;;;;;;;5053874;28;20272;-83
2023/12/12 01:53:16;;;;;;;6.73;3.10;;;;;;;;;;5054750;28;20210;-84
2023/12/12 01:55:43;;;;;;;15.37;2.90;;;;;;;;;;5053992;28;20287;-83
2023/12/12 01:58:10;;;;;;;8.13;3.00;;;;;;;;;;5054520;28;20225;-83
2023/12/12 02:00:37;;;;;;;8.43;3.27;;;;;;;;;;5053835;28;20233;-83
2023/12/12 02:03:04;;;;;;;15.63;3.50;;;;;;;;;;5053097;28;20537;-84
2023/12/12 02:05:31;;;;;;;13.17;3.20;;;;;;;;;;5053595;28;20242;-83
2023/12/12 02:08:00;;;;;;;11.33;2.80;;;;;;;;;;5051424;28;20703;-84
2023/12/12 02:10:27;;;;;;;13.10;3.43;;;;;;;;;;5052798;28;20264;-83
2023/12/12 02:12:54;;;;;;;7.27;2.40;;;;;;;;;;5054090;28;20276;-83
2023/12/12 02:15:21;;;;;;;7.27;3.03;;;;;;;;;;5053315;28;20684;-83
2023/12/12 02:17:48;;;;;;;10.23;3.47;;;;;;;;;;5053991;28;20280;-83
2023/12/12 02:20:15;;;;;;;14.43;3.47;;;;;;;;;;5053438;28;20206;-83
2023/12/12 02:22:44;;;;;;;10.30;3.30;;;;;;;;;;5053944;28;20202;-83
2023/12/12 02:25:11;;;;;;;9.20;3.00;;;;;;;;;;5053707;28;20210;-83
2023/12/12 02:27:38;;;;;;;9.90;2.87;;;;;;;;;;5054687;28;20226;-83
2023/12/12 02:30:07;;;;;;;10.87;2.87;;;;;;;;;;5055066;28;20364;-83
2023/12/12 02:32:34;;;;;;;10.53;2.73;;;;;;;;;;5054689;28;20271;-84
2023/12/12 02:35:01;;;;;;;8.17;2.97;;;;;;;;;;5054944;28;20214;-83
2023/12/12 02:37:28;;;;;;;6.37;2.83;;;;;;;;;;5062150;28;20300;-82
2023/12/12 02:39:57;;;;;;;9.63;3.07;;;;;;;;;;5062279;28;20202;-82
2023/12/12 02:42:24;;;;;;;7.60;3.20;;;;;;;;;;5059873;28;20261;-83
2023/12/12 02:44:51;;;;;;;8.87;3.03;;;;;;;;;;5053492;28;20255;-83
2023/12/12 02:47:19;;;;;;;7.97;2.83;;;;;;;;;;5052928;28;20246;-83
2023/12/12 02:49:46;;;;;;;15.30;3.30;;;;;;;;;;5053689;28;20210;-83
2023/12/12 02:52:13;;;;;;;7.40;2.47;;;;;;;;;;5052662;28;20241;-83
2023/12/12 02:54:40;;;;;;;12.53;3.30;;;;;;;;;;5053235;28;20226;-83
2023/12/12 02:57:08;;;;;;;12.73;3.00;;;;;;;;;;5052916;28;20245;-83
2023/12/12 02:59:35;;;;;;;4.10;2.83;;;;;;;;;;5053499;28;20287;-83
2023/12/12 03:02:02;;;;;;;9.10;3.17;;;;;;;;;;5052439;28;20238;-84
2023/12/12 03:04:29;;;;;;;10.93;2.83;;;;;;;;;;5053316;28;20623;-83
2023/12/12 03:06:56;;;;;;;12.37;3.57;;;;;;;;;;5052490;28;20241;-83
2023/12/12 03:09:23;;;;;;;8.20;2.70;;;;;;;;;;5053251;28;20609;-83
2023/12/12 03:11:52;;;;;;;9.93;3.17;;;;;;;;;;5052220;28;20280;-83
2023/12/12 03:14:22;;;;;;;13.73;3.57;;;;;;;;;;5052799;28;20218;-83
2023/12/12 03:16:49;;;;;;;8.90;3.17;;;;;;;;;;5052279;28;20238;-84
2023/12/12 03:19:16;;;;;;;10.47;3.20;;;;;;;;;;5052610;28;20274;-83
2023/12/12 03:21:43;;;;;;;10.30;2.97;;;;;;;;;;5051797;28;20295;-84
2023/12/12 03:24:10;;;;;;;11.70;3.60;;;;;;;;;;5052422;28;20229;-84
2023/12/12 03:26:37;;;;;;;8.03;3.30;;;;;;;;;;5052361;28;20246;-83
2023/12/12 03:29:04;;;;;;;6.10;2.50;;;;;;;;;;5052971;28;20210;-84
2023/12/12 03:31:33;;;;;;;11.67;3.13;;;;;;;;;;5052092;28;20242;-83
2023/12/12 03:34:00;;;;;;;6.40;2.70;;;;;;;;;;5052706;28;20256;-84
2023/12/12 03:36:27;;;;;;;10.50;3.40;;;;;;;;;;5052648;28;20242;-83
2023/12/12 03:38:54;;;;;;;9.43;3.13;;;;;;;;;;5052425;28;20681;-84
2023/12/12 03:41:21;;;;;;;12.43;3.07;;;;;;;;;;5051992;28;20237;-85
2023/12/12 03:43:48;;;;;;;7.33;2.67;;;;;;;;;;5052271;28;20206;-84
2023/12/12 03:46:15;;;;;;;7.93;3.57;;;;;;;;;;5051799;28;20708;-84
2023/12/12 03:48:43;;;;;;;9.87;2.80;;;;;;;;;;5052124;28;20698;-84
2023/12/12 03:51:11;;;;;;;11.13;3.63;;;;;;;;;;5051503;28;20288;-84
2023/12/12 03:53:38;;;;;;;8.23;4.03;;;;;;;;;;5052020;28;20210;-84
2023/12/12 03:56:05;;;;;;;12.73;3.57;;;;;;;;;;5051862;28;20233;-84
2023/12/12 03:58:32;;;;;;;13.23;3.27;;;;;;;;;;5052328;28;20209;-84
2023/12/12 04:00:59;;;;;;;12.00;3.43;;;;;;;;;;5051540;28;20651;-84
2023/12/12 04:03:27;;;;;;;8.77;3.23;;;;;;;;;;5052162;28;20210;-84
2023/12/12 04:05:55;;;;;;;10.47;4.07;;;;;;;;;;5051618;28;20316;-84
2023/12/12 04:08:22;;;;;;;16.50;4.23;;;;;;;;;;5051949;28;20237;-84
2023/12/12 04:10:49;;;;;;;19.00;3.87;;;;;;;;;;5051423;28;20237;-84
2023/12/12 04:13:16;;;;;;;13.00;3.73;;;;;;;;;;5052024;28;20619;-84
2023/12/12 04:15:43;;;;;;;13.23;3.47;;;;;;;;;;5051396;28;20229;-84
2023/12/12 04:18:10;;;;;;;8.03;3.33;;;;;;;;;;5051813;28;20233;-84
2023/12/12 04:20:36;;;;;;;10.17;3.70;;;;;;;;;;5051064;28;20237;-84
2023/12/12 04:23:05;;;;;;;11.27;3.17;;;;;;;;;;5051516;28;20545;-83
2023/12/12 04:25:33;;;;;;;11.30;3.83;;;;;;;;;;5051388;28;20739;-83
2023/12/12 04:28:00;;;;;;;5.13;2.43;;;;;;;;;;5051781;28;20313;-83
2023/12/12 04:30:27;;;;;;;9.80;3.20;;;;;;;;;;5050027;28;20242;-83
2023/12/12 04:32:54;;;;;;;13.47;3.20;;;;;;;;;;5051794;28;20218;-84
2023/12/12 04:35:21;;;;;;;10.03;2.93;;;;;;;;;;5051030;28;20240;-84
2023/12/12 04:37:48;;;;;;;9.37;3.10;;;;;;;;;;5051894;28;20237;-84
2023/12/12 04:40:16;;;;;;;10.83;3.20;;;;;;;;;;5051218;28;20206;-83
2023/12/12 04:42:44;;;;;;;9.67;3.17;;;;;;;;;;5051831;28;20206;-84
2023/12/12 04:45:11;;;;;;;7.53;3.53;;;;;;;;;;5051284;28;20209;-83
2023/12/12 04:47:38;;;;;;;10.10;3.70;;;;;;;;;;5051408;28;20226;-84
2023/12/12 04:50:05;;;;;;;10.77;3.27;;;;;;;;;;5050827;28;20214;-83
2023/12/12 04:52:32;;;;;;;12.57;3.50;;;;;;;;;;5051190;28;20233;-84
2023/12/12 04:54:59;;;;;;;17.20;3.47;;;;;;;;;;5051306;28;20677;-84
2023/12/12 04:57:27;;;;;;;9.00;3.50;;;;;;;;;;5050868;28;20287;-85
2023/12/12 04:59:54;;;;;;;10.90;4.00;;;;;;;;;;5051691;28;20206;-85
2023/12/12 05:02:21;;;;;;;10.70;3.27;;;;;;;;;;5050787;28;20649;-83
2023/12/12 05:04:48;;;;;;;21.03;4.30;;;;;;;;;;5051521;28;20218;-84
2023/12/12 05:07:16;;;;;;;11.90;3.47;;;;;;;;;;5050635;28;20284;-84
2023/12/12 05:09:43;;;;;;;8.30;3.10;;;;;;;;;;5051587;28;20212;-84
2023/12/12 05:12:11;;;;;;;7.97;3.50;;;;;;;;;;5050482;28;20234;-84
2023/12/12 05:14:39;;;;;;;10.23;4.53;;;;;;;;;;5051280;28;20222;-84
2023/12/12 05:17:06;;;;;;;9.37;3.30;;;;;;;;;;5050565;28;20609;-83
2023/12/12 05:19:33;;;;;;;9.97;3.63;;;;;;;;;;5051407;28;20317;-83
2023/12/12 05:22:00;;;;;;;10.77;3.30;;;;;;;;;;5050559;28;20229;-83
2023/12/12 05:24:27;;;;;;;15.13;3.30;;;;;;;;;;5051196;28;20260;-83
2023/12/12 05:26:54;;;;;;;9.10;3.00;;;;;;;;;;5050578;28;20247;-83
2023/12/12 05:29:21;;;;;;;14.00;3.43;;;;;;;;;;5051415;28;20213;-83
2023/12/12 05:31:49;;;;;;;15.27;3.70;;;;;;;;;;5050422;28;20598;-83
2023/12/12 05:34:16;;;;;;;9.40;3.30;;;;;;;;;;5051201;28;20214;-83
2023/12/12 05:36:43;;;;;;;4.47;3.17;;;;;;;;;;5050421;28;20261;-83
2023/12/12 05:39:11;;;;;;;9.90;3.40;;;;;;;;;;5050844;28;20248;-83
2023/12/12 05:41:38;;;;;;;8.33;3.30;;;;;;;;;;5050425;28;20313;-83
2023/12/12 05:44:05;;;;;;;12.80;3.20;;;;;;;;;;5050931;28;20596;-83
2023/12/12 05:46:32;;;;;;;8.30;3.23;;;;;;;;;;5052443;28;20248;-83
2023/12/12 05:49:00;;;;;;;17.03;4.30;;;;;;;;;;5054723;28;20206;-83
2023/12/12 05:51:27;;;;;;;15.03;4.53;;;;;;;;;;5053947;28;20233;-83
2023/12/12 05:53:54;;;;;;;8.43;3.00;;;;;;;;;;5054382;28;20206;-83
2023/12/12 05:56:21;;;;;;;6.23;3.00;;;;;;;;;;5054025;28;20383;-83
2023/12/12 05:58:49;;;;;;;8.53;3.60;;;;;;;;;;5053907;28;20210;-83
2023/12/12 06:01:18;;;;;;;8.97;3.90;;;;;;;;;;5053528;28;20317;-83
2023/12/12 06:03:45;;;;;;;15.90;3.50;;;;;;;;;;5054679;28;20296;-83
2023/12/12 06:06:13;;;;;;;4.63;3.33;;;;;;;;;;5053613;28;20233;-81
2023/12/12 06:08:41;;;;;;;12.03;3.30;;;;;;;;;;5053872;28;20209;-81
2023/12/12 06:11:08;;;;;;;9.67;3.17;;;;;;;;;;5053187;28;20708;-78
2023/12/12 06:13:35;;;;;;;13.40;4.23;;;;;;;;;;5053806;28;20661;-79
2023/12/12 06:16:02;;;;;;;12.20;4.07;;;;;;;;;;5053340;28;20241;-79
2023/12/12 06:18:29;;;;;;;12.53;5.80;;;;;;;;;;5053557;28;20230;-79
2023/12/12 06:20:56;;;;;;;24.37;9.37;;;;;;;;;;5053039;28;20303;-79
2023/12/12 06:23:24;;;;;;;17.97;5.17;;;;;;;;;;5053727;28;20256;-79
2023/12/12 06:25:52;;;;;;;13.60;4.63;;;;;;;;;;5053341;28;20363;-79
2023/12/12 06:28:19;;;;;;;4.60;3.03;;;;;;;;;;5053312;28;20226;-80
2023/12/12 06:30:46;;;;;;;7.13;3.30;;;;;;;;;;5052979;28;20722;-78
2023/12/12 06:33:13;;;;;;;4.63;2.90;;;;;;;;;;5053586;28;20206;-77
2023/12/12 06:35:40;;;;;;;7.80;3.27;;;;;;;;;;5053392;28;20238;-76
2023/12/12 06:38:07;;;;;;;8.80;3.03;;;;;;;;;;5053373;28;20230;-77
2023/12/12 06:40:35;;;;;;;5.23;2.93;;;;;;;;;;5052903;28;20295;-77
2023/12/12 06:43:02;;;;;;;4.70;3.27;;;;;;;;;;5053474;28;20198;-77
2023/12/12 06:45:29;;;;;;;11.53;3.60;;;;;;;;;;5053187;28;20291;-77
2023/12/12 06:47:56;;;;;;;15.87;3.43;;;;;;;;;;5053218;28;20230;-77
2023/12/12 06:50:23;;;;;;;6.80;3.10;;;;;;;;;;5052507;28;20284;-78
2023/12/12 06:52:51;;;;;;;10.83;3.53;;;;;;;;;;5053070;28;20230;-78
2023/12/12 06:55:18;;;;;;;9.70;3.50;;;;;;;;;;5052717;28;20202;-78
2023/12/12 06:57:46;;;;;;;8.83;3.27;;;;;;;;;;5053126;28;20233;-78
2023/12/12 07:00:14;;;;;;;11.83;3.90;;;;;;;;;;5052345;28;20206;-78
2023/12/12 07:02:40;;;;;;;7.77;3.37;;;;;;;;;;5053035;28;20665;-78
2023/12/12 07:05:07;;;;;;;7.70;3.27;;;;;;;;;;5052604;28;20225;-77
2023/12/12 07:07:34;;;;;;;9.47;3.50;;;;;;;;;;5053154;28;20230;-79
2023/12/12 07:10:06;;;;;;;9.17;3.53;;;;;;;;;;5053273;28;20214;-79
2023/12/12 07:12:33;;;;;;;12.17;3.43;;;;;;;;;;5052743;28;20221;-75
2023/12/12 07:15:01;;;;;;;8.93;3.30;;;;;;;;;;5053043;28;20214;-77
2023/12/12 07:17:28;;;;;;;12.07;3.07;;;;;;;;;;5056781;28;20260;-76
2023/12/12 07:19:55;;;;;;;7.07;2.90;;;;;;;;;;5052586;28;20207;-77
2023/12/12 07:22:22;;;;;;;9.60;4.00;;;;;;;;;;5043531;28;20768;-78
2023/12/12 07:24:49;;;;;;;10.07;3.87;;;;;;;;;;5033279;28;20211;-80
2023/12/12 07:27:16;;;;;;;10.00;3.83;;;;;;;;;;5031264;28;20273;-80
2023/12/12 07:29:43;;;;;;;6.40;3.50;;;;;;;;;;5032122;28;20280;-80
2023/12/12 07:32:12;;;;;;;6.37;3.60;;;;;;;;;;5031679;28;20323;-80
2023/12/12 07:34:39;;;;;;;7.13;3.53;;;;;;;;;;5032349;28;20305;-79
2023/12/12 07:37:06;;;;;;;11.53;3.27;;;;;;;;;;5031850;28;20329;-79
2023/12/12 07:39:33;;;;;;;3.97;3.13;;;;;;;;;;5032599;28;20217;-79
2023/12/12 07:42:00;;;;;;;9.57;3.83;;;;;;;;;;5031730;28;20314;-80
2023/12/12 07:44:27;;;;;;;12.43;3.77;;;;;;;;;;5032405;28;20211;-80
2023/12/12 07:46:54;;;;;;;8.97;3.97;;;;;;;;;;5031923;28;20238;-80
2023/12/12 07:49:23;;;;;;;6.83;3.23;;;;;;;;;;5033166;28;20326;-80
2023/12/12 07:51:51;;;;;;;8.60;3.37;;;;;;;;;;5045858;28;20233;-81
2023/12/12 07:54:18;;;;;;;3.73;2.90;;;;;;;;;;5052068;28;20682;-80
2023/12/12 07:56:44;;;;;;;7.27;3.00;;;;;;;;;;5051620;28;20237;-80
2023/12/12 07:59:11;;;;;;;7.80;2.57;;;;;;;;;;5051741;28;20672;-81
2023/12/12 08:01:39;;;;;;;4.23;2.83;;;;;;;;;;5051201;28;20276;-80
2023/12/12 08:04:06;;;;;;;3.07;2.60;;;;;;;;;;5051706;28;20234;-80
2023/12/12 08:06:34;;;;;;;7.37;3.03;;;;;;;;;;5051247;28;20657;-80
2023/12/12 08:09:02;;;;;;;6.17;3.13;;;;;;;;;;5051154;28;20557;-80
2023/12/12 08:11:29;;;;;;;5.03;2.87;;;;;;;;;;5051081;28;20622;-80
2023/12/12 08:13:57;;;;;;;10.10;3.27;;;;;;;;;;5051748;28;20214;-80
2023/12/12 08:16:25;;;;;;;6.63;3.50;;;;;;;;;;5051349;28;20232;-80
2023/12/12 08:18:52;;;;;;;6.67;3.10;;;;;;;;;;5051596;28;20245;-80
2023/12/12 08:21:20;;;;;;;4.03;2.87;;;;;;;;;;5051104;28;20242;-80
2023/12/12 08:23:48;;;;;;;16.50;3.57;;;;;;;;;;5051745;28;20259;-81
2023/12/12 08:26:15;;;;;;;5.60;3.03;;;;;;;;;;5051063;28;20288;-80
2023/12/12 08:28:42;;;;;;;13.93;3.13;;;;;;;;;;5051681;28;20225;-80
2023/12/12 08:31:09;;;;;;;8.73;3.70;;;;;;;;;;5050906;28;20241;-80
2023/12/12 08:33:36;;;;;;;4.53;3.67;;;;;;;;;;5050708;28;20638;-83
2023/12/12 08:36:04;;;;;;;8.93;4.87;;;;;;;;;;5050828;28;20271;-81
2023/12/12 08:38:31;;;;;;;13.60;3.57;;;;;;;;;;5050864;28;20312;-81
2023/12/12 08:40:59;;;;;;;10.53;3.93;;;;;;;;;;5048915;28;20238;-81
2023/12/12 08:43:27;;;;;;;9.40;4.00;;;;;;;;;;5051083;28;20209;-81
2023/12/12 08:45:55;;;;;;;4.83;3.33;;;;;;;;;;5050729;28;20241;-81
2023/12/12 08:48:23;;;;;;;11.07;3.90;;;;;;;;;;5050344;28;20237;-81
2023/12/12 08:50:51;;;;;;;9.33;3.57;;;;;;;;;;5050927;28;20316;-81
2023/12/12 08:53:18;;;;;;;12.43;3.50;;;;;;;;;;5051283;28;20229;-81
2023/12/12 08:55:45;;;;;;;6.77;3.30;;;;;;;;;;5050823;28;20236;-81
2023/12/12 08:58:14;;;;;;;7.50;3.70;;;;;;;;;;5051271;28;20387;-81
2023/12/12 09:00:41;;;;;;;4.63;3.40;;;;;;;;;;5050827;28;20642;-81
2023/12/12 09:03:08;;;;;;;6.03;3.57;;;;;;;;;;5051087;28;20213;-81
2023/12/12 09:05:36;;;;;;;7.33;3.03;;;;;;;;;;5050852;28;20312;-81
2023/12/12 09:08:03;;;;;;;8.70;3.97;;;;;;;;;;5051253;28;20644;-81
2023/12/12 09:10:30;;;;;;;9.90;4.27;;;;;;;;;;5050582;28;20237;-81
2023/12/12 09:12:57;;;;;;;10.13;3.93;;;;;;;;;;5050775;28;20626;-81
2023/12/12 09:15:25;;;;;;;9.87;4.30;;;;;;;;;;5050499;28;20234;-81
2023/12/12 09:17:52;;;;;;;16.87;4.57;;;;;;;;;;5050970;28;20230;-81
2023/12/12 09:20:19;;;;;;;10.20;4.40;;;;;;;;;;5052492;28;20260;-81
2023/12/12 09:22:46;;;;;;;21.13;4.73;;;;;;;;;;5055032;28;20206;-81
2023/12/12 09:25:13;;;;;;;13.27;4.80;;;;;;;;;;5054304;28;20618;-81
2023/12/12 09:27:40;;;;;;;13.93;4.27;;;;;;;;;;5054805;28;20226;-81
2023/12/12 09:30:08;;;;;;;9.60;5.10;;;;;;;;;;5054158;28;20255;-81
2023/12/12 09:32:36;;;;;;;8.53;4.10;;;;;;;;;;5054700;28;20237;-81
2023/12/12 09:35:04;;;;;;;19.67;5.47;;;;;;;;;;5054270;28;20202;-81
2023/12/12 09:37:31;;;;;;;15.17;6.47;;;;;;;;;;5054637;28;20261;-81
2023/12/12 09:39:58;;;;;;;17.30;7.00;;;;;;;;;;5054670;28;20236;-81
2023/12/12 09:42:25;;;;;;;11.57;4.43;;;;;;;;;;5053800;28;20234;-81
2023/12/12 09:44:57;;;;;;;11.03;4.43;;;;;;;;;;5054472;28;20263;-81
2023/12/12 09:47:24;;;;;;;14.07;4.97;;;;;;;;;;5053825;28;20241;-81
2023/12/12 09:49:55;;;;;;;8.90;4.50;;;;;;;;;;5054384;28;20641;-81
2023/12/12 09:52:22;;;;;;;13.97;5.43;;;;;;;;;;5053493;28;20252;-81
2023/12/12 09:54:50;;;;;;;14.90;5.50;;;;;;;;;;5054112;28;20287;-81
2023/12/12 09:57:18;;;;;;;8.47;4.67;;;;;;;;;;5053511;28;20292;-81
2023/12/12 09:59:45;;;;;;;13.93;5.50;;;;;;;;;;5054345;28;20209;-81
2023/12/12 10:02:15;;;;;;;15.90;6.20;;;;;;;;;;5053243;28;20234;-81
2023/12/12 10:04:43;;;;;;;12.37;5.70;;;;;;;;;;5054028;28;20210;-81
2023/12/12 10:07:13;;;;;;;15.63;5.37;;;;;;;;;;5053512;28;20241;-81
2023/12/12 10:09:40;;;;;;;9.47;4.67;;;;;;;;;;5054381;28;20213;-81
2023/12/12 10:12:07;;;;;;;16.57;5.67;;;;;;;;;;5053300;28;20245;-81
2023/12/12 10:14:36;;;;;;;13.43;5.50;;;;;;;;;;5053659;28;20240;-81
2023/12/12 10:17:05;;;;;;;7.87;4.87;;;;;;;;;;5053304;28;20234;-81
2023/12/12 10:19:32;;;;;;;10.57;4.97;;;;;;;;;;5053987;28;20213;-81
2023/12/12 10:22:02;;;;;;;17.20;5.10;;;;;;;;;;5053138;28;20242;-81
2023/12/12 10:24:30;;;;;;;13.27;4.70;;;;;;;;;;5053595;28;20618;-81
2023/12/12 10:26:58;;;;;;;15.30;5.53;;;;;;;;;;5053200;28;20299;-81
2023/12/12 10:29:25;;;;;;;13.30;4.30;;;;;;;;;;5053478;28;20240;-81
2023/12/12 10:31:53;;;;;;;9.33;4.27;;;;;;;;;;5052548;28;20237;-81
2023/12/12 10:34:20;;;;;;;10.80;4.93;;;;;;;;;;5053474;28;20230;-81
2023/12/12 10:36:48;;;;;;;11.50;4.93;;;;;;;;;;5053128;28;20252;-81
2023/12/12 10:39:16;;;;;;;9.43;4.30;;;;;;;;;;5053787;28;20237;-81
2023/12/12 10:41:52;;;;;;;6.30;4.03;;;;;;;;;;5052878;28;20280;-81
2023/12/12 10:44:19;;;;;;;5.60;3.80;;;;;;;;;;5053599;28;20186;-81
2023/12/12 10:46:47;;;;;;;11.00;4.10;;;;;;;;;;5052793;28;20312;-81
2023/12/12 10:49:14;;;;;;;8.77;3.50;;;;;;;;;;5053332;28;20206;-81
2023/12/12 10:51:43;;;;;;;12.47;3.33;;;;;;;;;;5052595;28;20785;-81
2023/12/12 10:54:10;;;;;;;6.10;3.50;;;;;;;;;;5052831;28;20233;-81
2023/12/12 10:56:38;;;;;;;12.17;3.77;;;;;;;;;;5052454;28;20242;-81
2023/12/12 10:59:07;;;;;;;9.40;3.50;;;;;;;;;;5053089;28;20225;-81
2023/12/12 11:01:34;;;;;;;6.70;3.20;;;;;;;;;;5052423;28;20249;-82
2023/12/12 11:04:05;;;;;;;9.30;3.27;;;;;;;;;;5052983;28;20218;-82
2023/12/12 11:06:32;;;;;;;7.77;3.70;;;;;;;;;;5052449;28;20237;-82
2023/12/12 11:08:59;;;;;;;13.17;3.67;;;;;;;;;;5052846;28;20242;-82
2023/12/12 11:11:27;;;;;;;14.40;3.37;;;;;;;;;;5052081;28;20649;-82
2023/12/12 11:13:54;;;;;;;6.90;3.07;;;;;;;;;;5052556;28;20287;-82
2023/12/12 11:16:22;;;;;;;11.93;3.93;;;;;;;;;;5051944;28;20241;-82
2023/12/12 11:18:49;;;;;;;3.40;3.10;;;;;;;;;;5052735;28;20255;-82
2023/12/12 11:21:35;;;;;;;8.23;3.17;;;;;;;;;;5051886;28;20237;-82
2023/12/12 11:24:02;;;;;;;11.30;3.43;;;;;;;;;;5052443;28;20350;-82
2023/12/12 11:26:29;;;;;;;18.50;3.70;;;;;;;;;;5051970;28;20238;-82
2023/12/12 11:28:56;;;;;;;12.73;3.47;;;;;;;;;;5052397;28;20218;-82
2023/12/12 11:31:25;;;;;;;8.23;3.60;;;;;;;;;;5051644;28;20233;-82
2023/12/12 11:34:02;;;;;;;10.83;3.47;;;;;;;;;;5052535;28;20226;-82
2023/12/12 11:36:30;;;;;;;5.00;3.03;;;;;;;;;;5051762;28;20241;-82
2023/12/12 11:39:03;;;;;;;8.30;3.80;;;;;;;;;;5052642;28;20609;-82
2023/12/12 11:41:30;;;;;;;7.27;3.37;;;;;;;;;;5051876;28;20244;-82
2023/12/12 11:43:57;;;;;;;14.73;3.97;;;;;;;;;;5051405;28;20214;-82
2023/12/12 11:46:26;;;;;;;3.60;3.10;;;;;;;;;;5052255;28;20238;-82
2023/12/12 11:48:54;;;;;;;8.00;3.97;;;;;;;;;;5053796;28;20213;-81
2023/12/12 11:51:39;;;;;;;10.63;3.97;;;;;;;;;;5052769;28;20234;-81
2023/12/12 11:54:07;;;;;;;9.83;3.93;;;;;;;;;;5053578;28;20234;-82
2023/12/12 11:56:34;;;;;;;7.73;4.00;;;;;;;;;;5055684;28;20257;-81
2023/12/12 11:59:02;;;;;;;8.10;3.80;;;;;;;;;;5064011;28;20259;-79
2023/12/12 12:01:31;;;;;;;9.33;4.23;;;;;;;;;;5065219;28;20264;-81
2023/12/12 12:03:58;;;;;;;8.93;4.27;;;;;;;;;;5046181;28;20274;-80
2023/12/12 12:06:25;;;;;;;13.90;4.27;;;;;;;;;;5037184;28;20291;-81
2023/12/12 12:08:52;;;;;;;10.10;3.93;;;;;;;;;;5031872;28;20747;-81
2023/12/12 12:11:19;;;;;;;6.03;4.17;;;;;;;;;;5031172;28;20234;-81
2023/12/12 12:13:46;;;;;;;15.67;4.83;;;;;;;;;;5031704;28;20657;-82
2023/12/12 12:16:15;;;;;;;8.90;3.97;;;;;;;;;;5031545;28;20234;-82
2023/12/12 12:18:43;;;;;;;6.90;3.87;;;;;;;;;;5032027;28;20214;-82
2023/12/12 12:21:11;;;;;;;16.07;4.47;;;;;;;;;;5031173;28;20246;-82
2023/12/12 12:23:38;;;;;;;17.83;4.50;;;;;;;;;;5031792;28;20225;-82
2023/12/12 12:26:06;;;;;;;4.20;3.80;;;;;;;;;;5031314;28;20288;-82
2023/12/12 12:28:33;;;;;;;7.73;3.90;;;;;;;;;;5031425;28;20226;-82
2023/12/12 12:31:00;;;;;;;7.40;4.30;;;;;;;;;;5031133;28;20233;-82
2023/12/12 12:33:32;;;;;;;6.47;3.63;;;;;;;;;;5031481;28;20237;-81
2023/12/12 12:36:01;;;;;;;6.90;3.53;;;;;;;;;;5031475;28;20257;-82
2023/12/12 12:38:29;;;;;;;5.20;3.93;;;;;;;;;;5031367;28;20232;-82
2023/12/12 12:40:56;;;;;;;13.97;3.93;;;;;;;;;;5031067;28;20230;-81
2023/12/12 12:43:23;;;;;;;13.67;4.03;;;;;;;;;;5031350;28;20582;-82
2023/12/12 12:45:50;;;;;;;10.03;3.67;;;;;;;;;;5031158;28;20322;-81
2023/12/12 12:48:18;;;;;;;6.67;3.33;;;;;;;;;;5031339;28;20266;-81
2023/12/12 12:50:45;;;;;;;11.00;4.60;;;;;;;;;;5030935;28;20657;-81
2023/12/12 12:53:14;;;;;;;9.70;3.37;;;;;;;;;;5031346;28;20237;-81
2023/12/12 12:55:42;;;;;;;10.07;3.70;;;;;;;;;;5033486;28;20777;-81
2023/12/12 12:58:10;;;;;;;8.93;3.67;;;;;;;;;;5035245;28;20222;-81
2023/12/12 13:00:37;;;;;;;12.23;4.20;;;;;;;;;;5034887;28;20238;-81
2023/12/12 13:03:04;;;;;;;6.33;3.77;;;;;;;;;;5035443;28;20210;-82
2023/12/12 13:05:31;;;;;;;9.83;3.77;;;;;;;;;;5034687;28;20234;-81
2023/12/12 13:07:59;;;;;;;5.90;3.33;;;;;;;;;;5035286;28;20234;-82
2023/12/12 13:10:27;;;;;;;7.53;3.53;;;;;;;;;;5034731;28;20654;-82
2023/12/12 13:12:54;;;;;;;11.57;3.90;;;;;;;;;;5035278;28;20226;-81
2023/12/12 13:15:21;;;;;;;10.57;4.33;;;;;;;;;;5034876;28;20241;-82
2023/12/12 13:17:48;;;;;;;6.80;3.60;;;;;;;;;;5039671;28;20230;-82
2023/12/12 13:20:15;;;;;;;11.13;3.97;;;;;;;;;;5034727;28;20337;-81
2023/12/12 13:22:43;;;;;;;4.67;3.47;;;;;;;;;;5035013;28;20337;-82
2023/12/12 13:25:10;;;;;;;9.47;3.73;;;;;;;;;;5034582;28;20210;-82
2023/12/12 13:27:39;;;;;;;5.93;3.80;;;;;;;;;;5034903;28;20234;-82
2023/12/12 13:30:10;;;;;;;10.67;3.93;;;;;;;;;;5034426;28;20609;-82
2023/12/12 13:32:38;;;;;;;8.07;3.93;;;;;;;;;;5034755;28;20617;-82
2023/12/12 13:35:05;;;;;;;9.83;3.97;;;;;;;;;;5034240;28;20332;-81
2023/12/12 13:37:32;;;;;;;7.33;3.13;;;;;;;;;;5034645;28;20430;-82
2023/12/12 13:39:59;;;;;;;4.53;2.37;;;;;;;;;;5034712;28;20210;-82
2023/12/12 13:42:26;;;;;;;3.77;2.70;;;;;;;;;;5034049;28;20238;-82
2023/12/12 13:44:56;;;;;;;3.30;2.60;;;;;;;;;;5034827;28;20198;-82
2023/12/12 13:47:27;;;;;;;6.07;3.90;;;;;;;;;;5034194;28;20812;-82
2023/12/12 13:49:54;;;;;;;5.43;4.10;;;;;;;;;;5034598;28;20206;-82
2023/12/12 13:52:21;;;;;;;8.27;6.60;;;;;;;;;;5033721;28;20234;-82
2023/12/12 13:54:48;;;;;;;4.83;3.03;;;;;;;;;;5034307;28;20237;-82
2023/12/12 13:57:15;;;;;;;3.17;2.80;;;;;;;;;;5033976;28;20249;-82
2023/12/12 13:59:42;;;;;;;5.50;2.07;;;;;;;;;;5034379;28;20558;-82
2023/12/12 14:02:10;;;;;;;4.00;1.93;;;;;;;;;;5039054;28;20226;-82
2023/12/12 14:04:37;;;;;;;2.30;2.17;;;;;;;;;;5054258;28;20288;-82
2023/12/12 14:07:04;;;;;;;3.63;3.00;;;;;;;;;;5052483;28;20238;-82
2023/12/12 14:09:31;;;;;;;2.80;2.50;;;;;;;;;;5054021;28;20305;-82
2023/12/12 14:12:00;;;;;;;3.77;3.10;;;;;;;;;;5053497;28;20241;-82
2023/12/12 14:14:27;;;;;;;3.60;2.80;;;;;;;;;;5053675;28;20696;-81
2023/12/12 14:16:54;;;;;;;2.83;2.63;;;;;;;;;;5053560;28;20291;-82
2023/12/12 14:19:22;;;;;;;5.07;3.50;;;;;;;;;;5053790;28;20213;-82
2023/12/12 14:21:50;;;;;;;2.73;2.53;;;;;;;;;;5053273;28;20233;-82
2023/12/12 14:24:18;;;;;;;4.00;2.80;;;;;;;;;;5053857;28;20233;-82
2023/12/12 14:26:45;;;;;;;5.30;2.97;;;;;;;;;;5053242;28;20238;-82
2023/12/12 14:29:12;;;;;;;3.60;3.30;;;;;;;;;;5053908;28;20232;-82
2023/12/12 14:31:39;;;;;;;2.87;2.67;;;;;;;;;;5052772;28;20237;-82
2023/12/12 14:34:06;;;;;;;2.93;2.13;;;;;;;;;;5053479;28;20570;-82
2023/12/12 14:36:35;;;;;;;4.90;2.63;;;;;;;;;;5053148;28;20238;-81
2023/12/12 14:39:04;;;;;;;3.60;2.60;;;;;;;;;;5053715;28;20212;-82